Time;durP1;ratioP1;P1;durP2;ratioP2;P2;SDS_P1;SDS_P2;PMS_P1;PMS_P2;Temp;Humidity;BMP_temperature;BMP_pressure;BME280_temperature;BME280_humidity;BME280_pressure;Samples;Min_cycle;Max_cycle;Signal;HPM_P1;HPM_P2
2021/12/31 00:01:10;;;;;;;;;;;10.20;99.90;;;;;;5031695;28;20434;-70
2021/12/31 00:03:36;;;;;;;;;;;11.60;99.90;;;;;;5032226;28;20003;-70
2021/12/31 00:06:01;;;;;;;;;;;11.10;99.90;;;;;;5032116;28;20590;-69
2021/12/31 00:08:27;;;;;;;;;;;;;;;;;;5032050;28;19905;-67
2021/12/31 00:10:59;;;;;;;;;;;10.80;99.90;;;;;;5030832;28;19909;-67
2021/12/31 00:13:25;;;;;;;;;;;10.30;99.90;;;;;;5031772;28;19921;-68
2021/12/31 00:15:51;;;;;;;;;;;10.30;99.90;;;;;;5031534;28;19999;-69
2021/12/31 00:18:17;;;;;;;;;;;10.30;99.90;;;;;;5032293;28;19916;-68
2021/12/31 00:20:43;;;;;;;;;;;;;;;;;;5032040;28;19909;-69
2021/12/31 00:23:11;;;;;;;;;;;;;;;;;;5031797;28;19940;-67
2021/12/31 00:25:39;;;;;;;;;;;9.20;99.90;;;;;;5031934;28;19912;-67
2021/12/31 00:28:05;;;;;;;;;;;;;;;;;;5031935;28;19905;-67
2021/12/31 00:30:31;;;;;;;;;;;10.50;99.90;;;;;;5031418;28;20382;-68
2021/12/31 00:32:56;;;;;;;;;;;9.80;99.90;;;;;;5031954;28;19909;-67
2021/12/31 00:35:22;;;;;;;;;;;9.30;99.90;;;;;;5031648;28;19920;-67
2021/12/31 00:37:48;;;;;;;;;;;9.20;99.90;;;;;;5031882;28;20015;-69
2021/12/31 00:40:15;;;;;;;;;;;10.70;99.90;;;;;;5031245;28;19915;-69
2021/12/31 00:42:41;;;;;;;;;;;11.40;99.90;;;;;;5031528;28;19936;-68
2021/12/31 00:45:07;;;;;;;;;;;9.40;99.90;;;;;;5031497;28;19909;-68
2021/12/31 00:47:33;;;;;;;;;;;10.10;99.90;;;;;;5031895;28;20503;-67
2021/12/31 00:49:58;;;;;;;;;;;6.40;99.90;;;;;;5031143;28;19967;-68
2021/12/31 00:52:25;;;;;;;;;;;9.30;99.90;;;;;;5031747;28;20159;-68
2021/12/31 00:54:50;;;;;;;;;;;8.50;99.90;;;;;;5031485;28;19955;-68
2021/12/31 00:57:16;;;;;;;;;;;8.50;99.90;;;;;;5031376;28;19932;-68
2021/12/31 00:59:42;;;;;;;;;;;;;;;;;;5031255;28;19913;-69
2021/12/31 01:02:07;;;;;;;;;;;9.70;99.90;;;;;;5031749;28;19951;-67
2021/12/31 01:04:33;;;;;;;;;;;8.80;99.90;;;;;;5031887;28;19912;-66
2021/12/31 01:07:01;;;;;;;;;;;8.60;99.90;;;;;;5031195;28;19909;-68
2021/12/31 01:09:27;;;;;;;;;;;8.20;99.90;;;;;;5030810;28;19909;-67
2021/12/31 01:11:54;;;;;;;;;;;9.50;99.90;;;;;;5031023;28;19944;-68
2021/12/31 01:14:33;;;;;;;;;;;10.70;99.90;;;;;;5031669;28;19917;-68
2021/12/31 01:17:03;;;;;;;;;;;9.00;99.90;;;;;;5031398;28;19931;-65
2021/12/31 01:19:45;;;;;;;;;;;9.40;99.90;;;;;;5030640;28;19916;-68
2021/12/31 01:22:23;;;;;;;;;;;9.50;99.90;;;;;;5053690;22;19921;-66
2021/12/31 01:24:48;;;;;;;;;;;8.50;99.90;;;;;;5043141;28;20007;-67
2021/12/31 01:27:14;;;;;;;;;;;9.00;99.90;;;;;;5045762;28;20414;-66
2021/12/31 01:29:40;;;;;;;;;;;10.60;99.90;;;;;;5033588;28;19909;-67
2021/12/31 01:32:06;;;;;;;;;;;9.80;99.90;;;;;;5034874;28;19920;-67
2021/12/31 01:34:31;;;;;;;;;;;8.50;99.90;;;;;;5034947;28;20015;-67
2021/12/31 01:36:59;;;;;;;;;;;9.00;99.90;;;;;;5034533;28;19912;-68
2021/12/31 01:39:25;;;;;;;;;;;9.50;99.90;;;;;;5034073;28;19909;-67
2021/12/31 01:41:50;;;;;;;;;;;8.50;99.90;;;;;;5034648;28;19905;-66
2021/12/31 01:44:16;;;;;;;;;;;8.10;99.90;;;;;;5034721;28;20645;-66
2021/12/31 01:46:54;;;;;;;;;;;9.00;99.90;;;;;;5034630;28;19909;-67
2021/12/31 01:49:22;;;;;;;;;;;8.50;99.90;;;;;;5033779;28;20382;-67
2021/12/31 01:51:47;;;;;;;;;;;7.90;99.90;;;;;;5040114;28;19912;-67
2021/12/31 01:54:13;;;;;;;;;;;7.80;99.90;;;;;;5054175;28;19913;-67
2021/12/31 01:56:39;;;;;;;;;;;9.40;99.90;;;;;;5054353;28;19915;-66
2021/12/31 01:59:06;;;;;;;;;;;8.90;99.90;;;;;;5053453;28;19905;-67
2021/12/31 02:01:32;;;;;;;;;;;8.20;99.90;;;;;;5053938;28;20285;-67
2021/12/31 02:03:59;;;;;;;;;;;8.40;99.90;;;;;;5054140;28;19909;-66
2021/12/31 02:06:24;;;;;;;;;;;8.10;99.90;;;;;;5053831;28;20351;-67
2021/12/31 02:08:50;;;;;;;;;;;8.70;99.90;;;;;;5051775;28;19962;-64
2021/12/31 02:11:16;;;;;;;;;;;8.30;99.90;;;;;;5053304;28;20385;-66
2021/12/31 02:13:42;;;;;;;;;;;10.20;99.90;;;;;;5053614;28;19967;-67
2021/12/31 02:16:07;;;;;;;;;;;8.50;99.90;;;;;;5053912;28;19919;-66
2021/12/31 02:18:34;;;;;;;;;;;8.30;99.90;;;;;;5054003;28;20495;-67
2021/12/31 02:21:02;;;;;;;;;;;7.60;99.90;;;;;;5053262;28;19909;-67
2021/12/31 02:23:37;;;;;;;;;;;8.80;99.90;;;;;;5053392;28;19905;-68
2021/12/31 02:26:02;;;;;;;;;;;7.70;99.90;;;;;;5053527;28;19912;-67
2021/12/31 02:28:28;;;;;;;;;;;;;;;;;;5053704;28;19916;-66
2021/12/31 02:31:00;;;;;;;;;;;7.10;99.90;;;;;;5052924;28;19944;-67
2021/12/31 02:33:25;;;;;;;;;;;7.00;99.90;;;;;;5053648;28;20382;-67
2021/12/31 02:35:51;;;;;;;;;;;8.40;99.90;;;;;;5053213;28;19912;-67
2021/12/31 02:38:17;;;;;;;;;;;7.40;99.90;;;;;;5052475;28;19916;-67
2021/12/31 02:40:43;;;;;;;;;;;;;;;;;;5034763;28;19908;-67
2021/12/31 02:43:09;;;;;;;;;;;;;;;;;;5052499;28;19943;-67
2021/12/31 02:45:37;;;;;;;;;;;7.30;99.90;;;;;;5052707;28;19905;-68
2021/12/31 02:48:04;;;;;;;;;;;8.00;99.90;;;;;;5033447;28;19929;-68
2021/12/31 02:50:34;;;;;;;;;;;6.90;99.90;;;;;;5051861;28;19904;-66
2021/12/31 02:53:00;;;;;;;;;;;7.50;99.90;;;;;;5053225;28;20302;-68
2021/12/31 02:55:30;;;;;;;;;;;7.20;99.90;;;;;;5053135;28;19974;-66
2021/12/31 02:57:56;;;;;;;;;;;7.40;99.90;;;;;;5053492;28;19909;-67
2021/12/31 03:00:21;;;;;;;;;;;6.50;99.90;;;;;;5052653;28;19908;-67
2021/12/31 03:02:47;;;;;;;;;;;7.70;99.90;;;;;;5053149;28;19904;-67
2021/12/31 03:05:13;;;;;;;;;;;6.70;99.90;;;;;;5053606;28;19912;-67
2021/12/31 03:07:39;;;;;;;;;;;8.10;99.90;;;;;;5052833;28;19999;-67
2021/12/31 03:10:06;;;;;;;;;;;7.10;99.90;;;;;;5052100;28;19962;-67
2021/12/31 03:12:31;;;;;;;;;;;7.30;99.90;;;;;;5052888;28;19962;-67
2021/12/31 03:14:57;;;;;;;;;;;;;;;;;;5052604;28;19913;-67
2021/12/31 03:17:24;;;;;;;;;;;7.80;99.90;;;;;;5052827;28;19905;-67
2021/12/31 03:19:57;;;;;;;;;;;8.70;99.90;;;;;;5051871;28;19908;-67
2021/12/31 03:22:25;;;;;;;;;;;7.20;99.90;;;;;;5051895;28;19913;-67
2021/12/31 03:24:51;;;;;;;;;;;6.80;99.90;;;;;;5052635;28;19913;-66
2021/12/31 03:27:17;;;;;;;;;;;7.20;99.90;;;;;;5052585;28;19956;-67
2021/12/31 03:29:42;;;;;;;;;;;7.20;99.90;;;;;;5051623;28;19966;-66
2021/12/31 03:32:08;;;;;;;;;;;6.70;99.90;;;;;;5052256;28;19960;-72
2021/12/31 03:34:33;;;;;;;;;;;8.20;99.90;;;;;;5052326;28;20455;-71
2021/12/31 03:36:59;;;;;;;;;;;6.80;99.90;;;;;;5051827;28;19938;-71
2021/12/31 03:39:24;;;;;;;;;;;;;;;;;;5033692;28;19909;-71
2021/12/31 03:41:50;;;;;;;;;;;;;;;;;;5052113;28;19908;-71
2021/12/31 03:44:16;;;;;;;;;;;6.70;99.90;;;;;;5052217;28;20413;-72
2021/12/31 03:46:41;;;;;;;;;;;6.70;99.90;;;;;;5052326;28;19905;-71
2021/12/31 03:49:07;;;;;;;;;;;7.30;99.90;;;;;;5051440;28;19916;-72
2021/12/31 03:51:32;;;;;;;;;;;6.90;99.90;;;;;;5051463;28;19999;-73
2021/12/31 03:53:58;;;;;;;;;;;6.80;99.90;;;;;;5051925;28;19904;-71
2021/12/31 03:56:26;;;;;;;;;;;6.60;99.90;;;;;;5051826;28;19909;-70
2021/12/31 03:58:51;;;;;;;;;;;7.20;99.90;;;;;;5052038;28;19972;-65
2021/12/31 04:01:17;;;;;;;;;;;5.60;99.90;;;;;;5051204;28;19913;-64
2021/12/31 04:03:42;;;;;;;;;;;6.10;99.90;;;;;;5051968;28;20282;-66
2021/12/31 04:06:08;;;;;;;;;;;6.80;99.90;;;;;;5051667;28;19913;-63
2021/12/31 04:08:33;;;;;;;;;;;7.70;99.90;;;;;;5051589;28;19909;-64
2021/12/31 04:10:59;;;;;;;;;;;8.00;99.90;;;;;;5051079;28;19932;-65
2021/12/31 04:13:25;;;;;;;;;;;;;;;;;;5033963;28;20290;-64
2021/12/31 04:15:50;;;;;;;;;;;5.90;99.90;;;;;;5051721;28;19909;-64
2021/12/31 04:18:16;;;;;;;;;;;6.30;99.90;;;;;;5051890;28;19913;-64
2021/12/31 04:20:44;;;;;;;;;;;6.60;99.90;;;;;;5050779;28;19947;-65
2021/12/31 04:23:26;;;;;;;;;;;6.60;99.90;;;;;;5051585;28;20031;-65
2021/12/31 04:25:52;;;;;;;;;;;7.00;99.90;;;;;;5036273;28;19908;-64
2021/12/31 04:28:17;;;;;;;;;;;6.60;99.90;;;;;;5051797;28;19916;-65
2021/12/31 04:30:43;;;;;;;;;;;7.20;99.90;;;;;;5051021;28;19915;-65
2021/12/31 04:33:08;;;;;;;;;;;5.60;99.90;;;;;;5051434;28;19905;-65
2021/12/31 04:35:34;;;;;;;;;;;7.20;99.90;;;;;;5051641;28;19920;-65
2021/12/31 04:38:00;;;;;;;;;;;;;;;;;;5051455;28;19908;-64
2021/12/31 04:40:26;;;;;;;;;;;;;;;;;;5050979;28;19912;-63
2021/12/31 04:42:51;;;;;;;;;;;6.30;99.90;;;;;;5051485;28;20289;-64
2021/12/31 04:45:17;;;;;;;;;;;7.40;99.90;;;;;;5051589;28;19958;-65
2021/12/31 04:47:42;;;;;;;;;;;6.80;99.90;;;;;;5051456;28;19905;-65
2021/12/31 04:50:08;;;;;;;;;;;7.40;99.90;;;;;;5050982;28;19966;-65
2021/12/31 04:52:34;;;;;;;;;;;6.50;99.90;;;;;;5051190;28;19959;-65
2021/12/31 04:54:59;;;;;;;;;;;5.50;99.90;;;;;;5051339;28;19960;-66
2021/12/31 04:57:26;;;;;;;;;;;6.80;99.90;;;;;;5051510;28;19954;-65
2021/12/31 04:59:52;;;;;;;;;;;7.10;99.90;;;;;;5050880;28;19909;-64
2021/12/31 05:02:17;;;;;;;;;;;7.10;99.90;;;;;;5052441;28;19916;-63
2021/12/31 05:04:43;;;;;;;;;;;6.80;99.90;;;;;;5047484;28;19931;-64
2021/12/31 05:07:09;;;;;;;;;;;6.50;99.90;;;;;;5034897;28;20010;-65
2021/12/31 05:09:34;;;;;;;;;;;6.70;99.90;;;;;;5034587;28;19912;-64
2021/12/31 05:12:00;;;;;;;;;;;6.70;99.90;;;;;;5038852;28;19905;-64
2021/12/31 05:14:26;;;;;;;;;;;7.40;99.90;;;;;;5055130;28;19915;-65
2021/12/31 05:16:51;;;;;;;;;;;6.50;99.90;;;;;;5054347;28;19909;-64
2021/12/31 05:19:17;;;;;;;;;;;6.10;99.90;;;;;;5054456;28;19919;-64
2021/12/31 05:21:42;;;;;;;;;;;6.60;99.90;;;;;;5054689;28;20544;-64
2021/12/31 05:24:08;;;;;;;;;;;5.70;99.90;;;;;;5054808;28;19917;-63
2021/12/31 05:26:33;;;;;;;;;;;6.70;99.90;;;;;;5055037;28;19913;-64
2021/12/31 05:28:59;;;;;;;;;;;;;;;;;;5036944;28;20413;-65
2021/12/31 05:31:24;;;;;;;;;;;7.60;99.90;;;;;;5054455;28;20329;-63
2021/12/31 05:33:50;;;;;;;;;;;6.70;99.90;;;;;;5054465;28;19935;-64
2021/12/31 05:36:16;;;;;;;;;;;7.80;99.90;;;;;;5054632;28;19909;-65
2021/12/31 05:38:42;;;;;;;;;;;8.20;99.90;;;;;;5054499;28;20289;-64
2021/12/31 05:41:08;;;;;;;;;;;7.80;99.90;;;;;;5053604;28;19996;-65
2021/12/31 05:43:33;;;;;;;;;;;6.00;99.90;;;;;;5054416;28;19905;-64
2021/12/31 05:45:59;;;;;;;;;;;6.60;99.90;;;;;;5054292;28;20374;-65
2021/12/31 05:48:24;;;;;;;;;;;5.50;99.90;;;;;;5054282;28;19912;-64
2021/12/31 05:50:50;;;;;;;;;;;7.00;99.90;;;;;;5053639;28;19971;-65
2021/12/31 05:53:16;;;;;;;;;;;6.80;99.90;;;;;;5054004;28;20485;-64
2021/12/31 05:55:41;;;;;;;;;;;6.40;99.90;;;;;;5054279;28;19915;-64
2021/12/31 05:58:07;;;;;;;;;;;7.30;99.90;;;;;;5054262;28;19909;-63
2021/12/31 06:00:32;;;;;;;;;;;7.00;99.90;;;;;;5053478;28;19930;-64
2021/12/31 06:02:58;;;;;;;;;;;5.60;99.90;;;;;;5054040;28;20277;-64
2021/12/31 06:05:25;;;;;;;;;;;6.40;99.90;;;;;;5054140;28;20434;-63
2021/12/31 06:07:52;;;;;;;;;;;6.30;99.90;;;;;;5054021;28;19962;-62
2021/12/31 06:10:17;;;;;;;;;;;7.00;99.90;;;;;;5054370;28;19916;-64
2021/12/31 06:12:43;;;;;;;;;;;6.50;99.90;;;;;;5052584;28;19912;-64
2021/12/31 06:15:09;;;;;;;;;;;6.20;99.90;;;;;;5053579;28;19959;-64
2021/12/31 06:17:36;;;;;;;;;;;6.60;99.90;;;;;;5054031;28;19913;-63
2021/12/31 06:20:03;;;;;;;;;;;6.60;99.90;;;;;;5053503;28;19951;-66
2021/12/31 06:22:29;;;;;;;;;;;;;;;;;;5053310;28;20003;-65
2021/12/31 06:24:55;;;;;;;;;;;;;;;;;;5053669;28;19970;-65
2021/12/31 06:27:20;;;;;;;;;;;7.20;99.90;;;;;;5053623;28;20395;-66
2021/12/31 06:29:46;;;;;;;;;;;6.30;99.90;;;;;;5052898;28;19987;-64
2021/12/31 06:32:11;;;;;;;;;;;6.50;99.90;;;;;;5053896;28;20359;-63
2021/12/31 06:34:37;;;;;;;;;;;6.30;99.90;;;;;;5053745;28;19913;-64
2021/12/31 06:37:03;;;;;;;;;;;6.70;99.90;;;;;;5053405;28;19920;-64
2021/12/31 06:39:28;;;;;;;;;;;6.40;99.90;;;;;;5052956;28;20003;-64
2021/12/31 06:41:54;;;;;;;;;;;7.60;99.90;;;;;;5053346;28;19916;-64
2021/12/31 06:44:19;;;;;;;;;;;7.40;99.90;;;;;;5053230;28;19908;-64
2021/12/31 06:46:45;;;;;;;;;;;6.30;99.90;;;;;;5035093;28;19963;-64
2021/12/31 06:49:11;;;;;;;;;;;7.00;99.90;;;;;;5053017;28;19916;-64
2021/12/31 06:51:36;;;;;;;;;;;6.40;99.90;;;;;;5052838;28;19909;-64
2021/12/31 06:54:02;;;;;;;;;;;;;;;;;;5044033;28;19987;-69
2021/12/31 06:56:28;;;;;;;;;;;7.70;99.90;;;;;;5042453;28;20011;-69
2021/12/31 06:58:53;;;;;;;;;;;5.60;99.90;;;;;;5051291;28;19944;-75
2021/12/31 07:01:19;;;;;;;;;;;5.80;99.90;;;;;;5058482;28;19909;-77
2021/12/31 07:03:45;;;;;;;;;;;5.20;99.90;;;;;;5057451;28;19908;-76
2021/12/31 07:06:10;;;;;;;;;;;6.60;99.90;;;;;;5052395;28;19932;-75
2021/12/31 07:08:36;;;;;;;;;;;6.30;99.90;;;;;;5058407;28;19912;-77
2021/12/31 07:11:01;;;;;;;;;;;5.20;99.90;;;;;;5056270;28;19906;-77
2021/12/31 07:13:27;;;;;;;;;;;6.90;99.90;;;;;;5057005;28;19905;-75
2021/12/31 07:15:54;;;;;;;;;;;7.10;99.90;;;;;;5038425;28;19913;-76
2021/12/31 07:18:20;;;;;;;;;;;6.50;99.90;;;;;;5056869;28;19944;-76
2021/12/31 07:20:46;;;;;;;;;;;6.10;99.90;;;;;;5056168;28;19970;-76
2021/12/31 07:23:13;;;;;;;;;;;6.90;99.90;;;;;;5077870;22;19924;-79
2021/12/31 07:25:39;;;;;;;;;;;6.40;99.90;;;;;;5036841;28;19917;-77
2021/12/31 07:28:05;;;;;;;;;;;6.40;99.90;;;;;;5051637;28;19963;-76
2021/12/31 07:30:31;;;;;;;;;;;5.60;99.90;;;;;;5050698;28;19908;-76
2021/12/31 07:32:56;;;;;;;;;;;5.40;99.90;;;;;;5051470;28;19954;-77
2021/12/31 07:35:22;;;;;;;;;;;5.60;99.90;;;;;;5051422;28;19920;-76
2021/12/31 07:37:48;;;;;;;;;;;6.60;99.90;;;;;;5041181;28;19932;-76
2021/12/31 07:40:13;;;;;;;;;;;5.90;99.90;;;;;;5050861;28;19917;-77
2021/12/31 07:42:39;;;;;;;;;;;5.80;99.90;;;;;;5051851;28;19914;-77
2021/12/31 07:45:05;;;;;;;;;;;6.60;99.90;;;;;;5052178;28;20582;-76
2021/12/31 07:47:31;;;;;;;;;;;6.60;99.90;;;;;;5053363;28;19908;-75
2021/12/31 07:49:57;;;;;;;;;;;6.00;99.90;;;;;;5054274;28;19920;-76
2021/12/31 07:52:22;;;;;;;;;;;5.40;99.90;;;;;;5055291;28;19909;-76
2021/12/31 07:54:48;;;;;;;;;;;6.00;99.90;;;;;;5050374;28;20289;-76
2021/12/31 07:57:13;;;;;;;;;;;6.70;99.90;;;;;;5056738;28;19913;-76
2021/12/31 07:59:39;;;;;;;;;;;5.90;99.90;;;;;;5063546;28;20397;-77
2021/12/31 08:02:04;;;;;;;;;;;6.70;99.90;;;;;;5054384;28;19913;-78
2021/12/31 08:04:30;;;;;;;;;;;7.70;99.90;;;;;;5055464;28;19917;-77
2021/12/31 08:06:55;;;;;;;;;;;6.50;99.90;;;;;;5052347;28;19909;-77
2021/12/31 08:09:21;;;;;;;;;;;6.20;99.90;;;;;;5050931;28;20078;-77
2021/12/31 08:11:46;;;;;;;;;;;6.20;99.90;;;;;;5051989;28;19954;-77
2021/12/31 08:14:12;;;;;;;;;;;6.90;99.90;;;;;;5041215;28;20496;-77
2021/12/31 08:16:38;;;;;;;;;;;6.30;99.90;;;;;;5049221;28;19912;-71
2021/12/31 08:19:03;;;;;;;;;;;7.30;99.90;;;;;;5051354;28;20371;-70
2021/12/31 08:21:29;;;;;;;;;;;7.20;99.90;;;;;;5051859;28;19952;-70
2021/12/31 08:23:54;;;;;;;;;;;6.80;99.90;;;;;;5038087;28;19920;-70
2021/12/31 08:26:20;;;;;;;;;;;;;;;;;;5051353;28;19908;-71
2021/12/31 08:28:46;;;;;;;;;;;8.00;99.90;;;;;;5051015;28;19913;-71
2021/12/31 08:31:11;;;;;;;;;;;7.30;99.90;;;;;;5051202;28;19947;-71
2021/12/31 08:33:37;;;;;;;;;;;8.30;99.90;;;;;;5051802;28;19918;-72
2021/12/31 08:36:03;;;;;;;;;;;;;;;;;;5053390;28;19919;-71
2021/12/31 08:38:29;;;;;;;;;;;7.70;99.90;;;;;;5054453;28;19962;-72
2021/12/31 08:40:56;;;;;;;;;;;7.30;99.90;;;;;;5055071;28;19904;-73
2021/12/31 08:43:22;;;;;;;;;;;6.70;99.90;;;;;;5054846;28;20359;-74
2021/12/31 08:45:47;;;;;;;;;;;6.80;99.90;;;;;;5055380;28;20039;-73
2021/12/31 08:48:13;;;;;;;;;;;;;;;;;;5037755;28;19909;-73
2021/12/31 08:50:38;;;;;;;;;;;6.10;99.90;;;;;;5055105;28;19968;-72
2021/12/31 08:53:04;;;;;;;;;;;8.30;99.90;;;;;;5055447;28;19954;-73
2021/12/31 08:55:30;;;;;;;;;;;6.90;99.90;;;;;;5055208;28;20330;-74
2021/12/31 08:57:55;;;;;;;;;;;8.50;99.90;;;;;;5055090;28;19920;-75
2021/12/31 09:00:21;;;;;;;;;;;6.70;99.90;;;;;;5054797;28;19990;-73
2021/12/31 09:02:49;;;;;;;;;;;7.70;99.90;;;;;;5055262;28;19909;-71
2021/12/31 09:05:15;;;;;;;;;;;7.90;99.90;;;;;;5055445;28;19905;-72
2021/12/31 09:07:41;;;;;;;;;;;8.00;99.90;;;;;;5055175;28;20290;-72
2021/12/31 09:10:08;;;;;;;;;;;6.70;99.90;;;;;;5054560;28;20282;-73
2021/12/31 09:12:34;;;;;;;;;;;7.80;99.90;;;;;;5055587;28;20536;-73
2021/12/31 09:15:00;;;;;;;;;;;;;;;;;;5055313;28;19908;-72
2021/12/31 09:17:25;;;;;;;;;;;8.20;99.90;;;;;;5055241;28;19908;-74
2021/12/31 09:19:51;;;;;;;;;;;6.50;99.90;;;;;;5054354;28;20304;-70
2021/12/31 09:22:16;;;;;;;;;;;7.10;99.90;;;;;;5054742;28;19963;-70
2021/12/31 09:24:42;;;;;;;;;;;8.60;99.90;;;;;;5054669;28;19943;-70
2021/12/31 09:27:08;;;;;;;;;;;8.60;99.90;;;;;;5054701;28;19926;-70
2021/12/31 09:29:33;;;;;;;;;;;8.30;99.90;;;;;;5054106;28;19999;-70
2021/12/31 09:31:59;;;;;;;;;;;8.40;99.90;;;;;;5054833;28;19916;-71
2021/12/31 09:34:25;;;;;;;;;;;;;;;;;;5054005;28;19913;-70
2021/12/31 09:36:50;;;;;;;;;;;9.20;99.90;;;;;;5054547;28;19958;-70
2021/12/31 09:39:16;;;;;;;;;;;8.80;99.90;;;;;;5052676;28;20000;-70
2021/12/31 09:41:42;;;;;;;;;;;7.00;99.90;;;;;;5054648;28;19959;-70
2021/12/31 09:44:07;;;;;;;;;;;8.60;99.90;;;;;;5054444;28;20390;-70
2021/12/31 09:46:33;;;;;;;;;;;;;;;;;;5054177;28;19952;-70
2021/12/31 09:48:59;;;;;;;;;;;9.00;99.90;;;;;;5035168;28;19908;-70
2021/12/31 09:51:25;;;;;;;;;;;9.30;99.90;;;;;;5054121;28;20385;-69
2021/12/31 09:53:52;;;;;;;;;;;10.80;99.90;;;;;;5054175;28;19913;-71
2021/12/31 09:56:18;;;;;;;;;;;11.80;99.90;;;;;;5053860;28;20413;-72
2021/12/31 09:58:43;;;;;;;;;;;11.70;99.90;;;;;;5054101;28;19912;-70
2021/12/31 10:01:09;;;;;;;;;;;;;;;;;;5053655;28;19992;-69
2021/12/31 10:03:35;;;;;;;;;;;;;;;;;;5054070;28;19905;-69
2021/12/31 10:06:01;;;;;;;;;;;13.50;99.90;;;;;;5053991;28;19909;-69
2021/12/31 10:08:28;;;;;;;;;;;14.80;99.90;;;;;;5053893;28;19947;-69
2021/12/31 10:11:02;;;;;;;;;;;13.50;99.90;;;;;;5052670;28;19912;-69
2021/12/31 10:13:28;;;;;;;;;;;15.20;99.90;;;;;;5053453;28;19928;-68
2021/12/31 10:15:54;;;;;;;;;;;14.30;99.90;;;;;;5053225;28;19967;-69
2021/12/31 10:18:20;;;;;;;;;;;;;;;;;;5053438;28;19977;-68
2021/12/31 10:20:46;;;;;;;;;;;15.90;99.90;;;;;;5035419;28;20375;-68
2021/12/31 10:23:13;;;;;;;;;;;14.70;99.90;;;;;;5053319;28;20007;-69
2021/12/31 10:25:39;;;;;;;;;;;16.40;99.90;;;;;;5053602;28;20003;-68
2021/12/31 10:28:09;;;;;;;;;;;15.70;99.90;;;;;;5053829;28;19920;-69
2021/12/31 10:30:34;;;;;;;;;;;15.50;99.90;;;;;;5052831;28;19950;-73
2021/12/31 10:33:00;;;;;;;;;;;14.00;99.90;;;;;;5053365;28;19908;-73
2021/12/31 10:35:25;;;;;;;;;;;15.90;99.90;;;;;;5053373;28;19913;-73
2021/12/31 10:38:01;;;;;;;;;;;15.50;99.90;;;;;;5035783;28;20334;-74
2021/12/31 10:40:33;;;;;;;;;;;14.00;99.90;;;;;;5053140;28;19974;-75
2021/12/31 10:42:59;;;;;;;;;;;;;;;;;;5035619;28;19973;-74
2021/12/31 10:45:24;;;;;;;;;;;;;;;;;;5053144;28;19948;-74
2021/12/31 10:47:50;;;;;;;;;;;14.60;99.90;;;;;;5039869;28;19913;-75
2021/12/31 10:50:17;;;;;;;;;;;14.60;99.90;;;;;;5040928;28;19905;-75
2021/12/31 10:52:53;;;;;;;;;;;;;;;;;;5051816;28;20354;-75
2021/12/31 10:57:47;;;;;;;;;;;;;;;;;;5052653;28;20401;-71
2021/12/31 11:00:14;;;;;;;;;;;21.10;99.90;;;;;;5052912;28;19952;-71
2021/12/31 11:02:40;;;;;;;;;;;22.40;99.90;;;;;;5054769;28;20006;-72
2021/12/31 11:05:06;;;;;;;;;;;23.10;99.90;;;;;;5055720;28;19905;-72
2021/12/31 11:07:32;;;;;;;;;;;23.60;98.40;;;;;;5056903;28;20373;-72
2021/12/31 11:09:58;;;;;;;;;;;23.60;97.60;;;;;;5052829;28;20358;-72
2021/12/31 11:12:27;;;;;;;;;;;22.20;96.70;;;;;;5052467;28;19905;-72
2021/12/31 11:14:54;;;;;;;;;;;23.70;96.50;;;;;;5052136;28;19916;-72
2021/12/31 11:17:20;;;;;;;;;;;24.50;96.20;;;;;;5052539;28;20469;-72
2021/12/31 11:19:48;;;;;;;;;;;23.10;95.30;;;;;;5051734;28;19923;-72
2021/12/31 11:22:14;;;;;;;;;;;23.90;95.30;;;;;;5052810;28;19962;-72
2021/12/31 11:24:40;;;;;;;;;;;;;;;;;;5052655;28;20282;-72
2021/12/31 11:27:24;;;;;;;;;;;22.90;94.20;;;;;;5034370;28;19905;-72
2021/12/31 11:29:50;;;;;;;;;;;23.90;93.90;;;;;;5051491;28;19975;-71
2021/12/31 11:32:15;;;;;;;;;;;24.20;94.70;;;;;;5052544;28;19913;-72
2021/12/31 11:34:41;;;;;;;;;;;21.90;94.70;;;;;;5051840;28;19962;-72
2021/12/31 11:37:06;;;;;;;;;;;21.50;96.90;;;;;;5052166;28;20311;-72
2021/12/31 11:39:35;;;;;;;;;;;19.70;99.90;;;;;;5051558;28;20424;-73
2021/12/31 11:42:02;;;;;;;;;;;20.30;99.80;;;;;;5052237;28;19915;-73
2021/12/31 11:44:28;;;;;;;;;;;23.30;98.70;;;;;;5052186;28;19992;-73
2021/12/31 11:47:14;;;;;;;;;;;22.60;96.70;;;;;;5052157;28;20359;-73
2021/12/31 11:49:40;;;;;;;;;;;23.20;96.00;;;;;;5040539;28;19927;-73
2021/12/31 11:52:08;;;;;;;;;;;22.70;95.60;;;;;;5032321;28;20361;-73
2021/12/31 11:54:35;;;;;;;;;;;23.40;94.70;;;;;;5030956;28;19935;-72
2021/12/31 11:57:01;;;;;;;;;;;;;;;;;;5031733;28;19913;-73
2021/12/31 11:59:27;;;;;;;;;;;24.80;94.60;;;;;;5031510;28;20329;-76
2021/12/31 12:02:03;;;;;;;;;;;25.00;94.40;;;;;;5031462;28;19909;-76
2021/12/31 12:04:29;;;;;;;;;;;25.30;93.90;;;;;;5031466;28;19905;-76
2021/12/31 12:06:54;;;;;;;;;;;26.60;93.00;;;;;;5031339;28;20317;-76
2021/12/31 12:09:21;;;;;;;;;;;26.60;92.10;;;;;;5030877;28;19905;-76
2021/12/31 12:11:58;;;;;;;;;;;24.60;92.20;;;;;;5031177;28;19913;-76
2021/12/31 12:14:36;;;;;;;;;;;23.70;94.40;;;;;;5031589;28;19949;-77
2021/12/31 12:17:02;;;;;;;;;;;24.50;94.30;;;;;;5031281;28;19909;-76
2021/12/31 12:19:46;;;;;;;;;;;24.00;93.50;;;;;;5044635;28;19908;-76
2021/12/31 12:22:25;;;;;;;;;;;23.20;94.90;;;;;;5048174;28;19920;-76
2021/12/31 12:24:51;;;;;;;;;;;23.20;96.90;;;;;;5052694;28;20410;-76
2021/12/31 12:27:17;;;;;;;;;;;21.70;98.10;;;;;;5055158;28;19908;-77
2021/12/31 12:29:43;;;;;;;;;;;19.40;99.90;;;;;;5049774;28;19909;-77
2021/12/31 12:32:10;;;;;;;;;;;19.40;99.90;;;;;;5039914;28;19960;-76
2021/12/31 12:34:35;;;;;;;;;;;19.20;99.30;;;;;;5049483;28;19917;-75
2021/12/31 12:37:01;;;;;;;;;;;22.00;99.90;;;;;;5051439;28;19909;-72
2021/12/31 12:39:27;;;;;;;;;;;20.60;99.90;;;;;;5050847;28;20286;-71
2021/12/31 12:41:52;;;;;;;;;;;19.10;99.90;;;;;;5051636;28;19916;-72
2021/12/31 12:44:18;;;;;;;;;;;19.60;99.90;;;;;;5051803;28;19909;-72
2021/12/31 12:46:54;;;;;;;;;;;19.60;99.90;;;;;;5051598;28;19923;-72
2021/12/31 12:49:20;;;;;;;;;;;20.20;98.40;;;;;;5043549;28;19909;-71
2021/12/31 12:51:48;;;;;;;;;;;22.10;99.60;;;;;;5031713;28;19992;-72
2021/12/31 12:54:17;;;;;;;;;;;23.90;97.30;;;;;;5049241;28;19932;-72
2021/12/31 12:56:43;;;;;;;;;;;24.10;96.30;;;;;;5051699;28;19915;-74
2021/12/31 12:59:10;;;;;;;;;;;24.90;95.70;;;;;;5050934;28;19909;-74
2021/12/31 13:01:42;;;;;;;;;;;22.80;95.90;;;;;;5051359;28;19916;-75
2021/12/31 13:04:09;;;;;;;;;;;22.40;98.70;;;;;;5051521;28;19968;-74
2021/12/31 13:06:35;;;;;;;;;;;;;;;;;;5051420;28;20406;-75
2021/12/31 13:09:04;;;;;;;;;;;20.50;99.90;;;;;;5051151;28;20046;-76
2021/12/31 13:11:31;;;;;;;;;;;20.40;99.90;;;;;;5051173;28;20399;-68
2021/12/31 13:13:57;;;;;;;;;;;17.90;99.90;;;;;;5051340;28;19909;-67
2021/12/31 13:16:22;;;;;;;;;;;18.80;99.90;;;;;;5051332;28;19952;-68
2021/12/31 13:19:01;;;;;;;;;;;18.70;99.90;;;;;;5051289;28;19908;-68
2021/12/31 13:21:26;;;;;;;;;;;17.60;99.90;;;;;;5052107;28;19913;-67
2021/12/31 13:23:54;;;;;;;;;;;18.60;99.90;;;;;;5076972;22;19920;-65
2021/12/31 13:26:19;;;;;;;;;;;;;;;;;;5050376;28;19905;-75
2021/12/31 13:28:46;;;;;;;;;;;;;;;;;;5051863;28;19959;-75
2021/12/31 13:31:12;;;;;;;;;;;;;;;;;;5054380;28;19905;-75
2021/12/31 13:33:38;;;;;;;;;;;;;;;;;;5045922;28;19983;-76
2021/12/31 13:36:25;;;;;;;;;;;16.80;99.90;;;;;;5034647;28;19920;-74
2021/12/31 13:39:09;;;;;;;;;;;17.90;99.90;;;;;;5034696;28;19999;-74
2021/12/31 13:41:36;;;;;;;;;;;17.40;99.90;;;;;;5034709;28;19905;-74
2021/12/31 13:44:05;;;;;;;;;;;17.10;99.90;;;;;;5034720;28;19909;-74
2021/12/31 13:46:31;;;;;;;;;;;16.50;99.90;;;;;;5026678;28;19931;-74
2021/12/31 13:49:01;;;;;;;;;;;16.10;99.90;;;;;;5028495;28;20427;-74
2021/12/31 13:51:26;;;;;;;;;;;;;;;;;;5014686;28;19921;-74
2021/12/31 13:53:52;;;;;;;;;;;18.30;99.90;;;;;;5022902;28;20287;-74
2021/12/31 13:56:18;;;;;;;;;;;16.50;99.90;;;;;;5034272;28;19909;-74
2021/12/31 13:58:43;;;;;;;;;;;17.20;99.90;;;;;;5034682;28;20066;-74
2021/12/31 14:01:14;;;;;;;;;;;18.40;99.90;;;;;;5034101;28;19909;-75
2021/12/31 14:03:40;;;;;;;;;;;19.40;99.90;;;;;;5017004;28;19955;-75
2021/12/31 14:06:14;;;;;;;;;;;21.20;99.90;;;;;;5034332;28;19999;-75
2021/12/31 14:08:42;;;;;;;;;;;20.00;99.90;;;;;;5045105;28;20385;-76
2021/12/31 14:11:08;;;;;;;;;;;20.00;99.90;;;;;;5046151;28;19909;-76
2021/12/31 14:13:41;;;;;;;;;;;20.10;99.90;;;;;;5043429;28;20011;-75
2021/12/31 14:16:06;;;;;;;;;;;19.60;99.90;;;;;;5032383;28;19913;-75
2021/12/31 14:18:32;;;;;;;;;;;21.30;99.90;;;;;;5033596;28;19966;-74
2021/12/31 14:20:57;;;;;;;;;;;22.90;99.90;;;;;;5022150;28;19959;-75
2021/12/31 14:23:23;;;;;;;;;;;21.90;99.90;;;;;;5024000;28;20295;-75
2021/12/31 14:25:49;;;;;;;;;;;22.70;99.20;;;;;;5007964;28;19910;-75
2021/12/31 14:28:14;;;;;;;;;;;21.20;98.60;;;;;;5026211;28;19905;-75
2021/12/31 14:30:40;;;;;;;;;;;21.90;99.50;;;;;;5022058;28;19905;-75
2021/12/31 14:33:06;;;;;;;;;;;21.20;99.60;;;;;;5021742;28;19917;-74
2021/12/31 14:35:41;;;;;;;;;;;20.50;99.90;;;;;;5027320;28;20067;-73
2021/12/31 14:38:16;;;;;;;;;;;18.80;99.90;;;;;;5032560;28;20007;-72